createdAt,value
2023-04-22T00:00:45.556Z,11.27
2023-04-22T00:03:12.184Z,11.22
2023-04-22T00:05:38.829Z,11.25
2023-04-22T00:08:05.391Z,11.20
2023-04-22T00:10:31.889Z,11.17
2023-04-22T00:12:58.358Z,11.15
2023-04-22T00:15:25.579Z,11.07
2023-04-22T00:17:52.098Z,10.98
2023-04-22T00:20:21.894Z,10.87
2023-04-22T00:22:48.400Z,10.83
2023-04-22T00:25:15.225Z,10.77
2023-04-22T00:27:41.706Z,10.65
2023-04-22T00:30:08.360Z,10.63
2023-04-22T00:32:35.049Z,10.61
2023-04-22T00:35:01.515Z,10.52
2023-04-22T00:37:28.428Z,10.35
2023-04-22T00:39:54.845Z,10.23
2023-04-22T00:42:21.728Z,10.19
2023-04-22T00:44:48.579Z,10.25
2023-04-22T00:47:15.944Z,10.21
2023-04-22T00:49:42.371Z,10.19
2023-04-22T00:52:08.804Z,10.15
2023-04-22T00:54:36.005Z,10.21
2023-04-22T00:57:03.938Z,10.22
2023-04-22T00:59:30.467Z,10.11
2023-04-22T01:01:56.965Z,10.06
2023-04-22T01:04:23.451Z,10.11
2023-04-22T01:06:51.575Z,10.15
2023-04-22T01:09:19.316Z,10.15
2023-04-22T01:11:46.394Z,10.14
2023-04-22T01:14:12.958Z,10.15
2023-04-22T01:16:41.170Z,10.13
2023-04-22T01:19:08.342Z,10.08
2023-04-22T01:21:35.612Z,10.07
2023-04-22T01:24:02.245Z,10.03
2023-04-22T01:26:29.034Z,9.96
2023-04-22T01:28:55.902Z,9.92
2023-04-22T01:31:22.614Z,9.82
2023-04-22T01:33:49.627Z,9.85
2023-04-22T01:36:16.959Z,9.79
2023-04-22T01:38:43.409Z,9.73
2023-04-22T01:41:10.032Z,9.66
2023-04-22T01:43:36.736Z,9.52
2023-04-22T01:46:04.722Z,9.44
2023-04-22T01:48:31.222Z,9.35
2023-04-22T01:50:57.713Z,9.27
2023-04-22T01:53:24.668Z,9.23
2023-04-22T01:55:51.104Z,9.26
2023-04-22T01:58:17.497Z,9.23
2023-04-22T02:00:44.326Z,9.15
2023-04-22T02:03:11.063Z,9.13
2023-04-22T02:05:38.221Z,9.05
2023-04-22T02:08:04.989Z,9.01
2023-04-22T02:10:31.573Z,9.04
2023-04-22T02:12:58.090Z,9.10
2023-04-22T02:15:24.631Z,9.01
2023-04-22T02:17:51.137Z,9.04
2023-04-22T02:20:17.668Z,9.03
2023-04-22T02:22:44.163Z,9.02
2023-04-22T02:25:14.028Z,8.98
2023-04-22T02:27:40.632Z,8.98
2023-04-22T02:30:07.488Z,8.96
2023-04-22T02:32:35.793Z,8.99
2023-04-22T02:35:03.064Z,8.96
2023-04-22T02:37:29.564Z,8.97
2023-04-22T02:39:55.971Z,8.92
2023-04-22T02:42:22.409Z,8.86
2023-04-22T02:44:48.823Z,8.86
2023-04-22T02:47:15.284Z,8.83
2023-04-22T02:49:41.987Z,8.73
2023-04-22T02:52:08.736Z,8.69
2023-04-22T02:54:35.226Z,8.70
2023-04-22T02:57:01.764Z,8.66
2023-04-22T02:59:28.202Z,8.71
2023-04-22T03:01:54.688Z,8.74
2023-04-22T03:04:22.131Z,8.76
2023-04-22T03:06:49.115Z,8.82
2023-04-22T03:09:15.557Z,8.87
2023-04-22T03:11:41.961Z,8.85
2023-04-22T03:14:08.357Z,8.80
2023-04-22T03:16:34.818Z,8.85
2023-04-22T03:19:01.252Z,8.93
2023-04-22T03:21:28.558Z,8.95
2023-04-22T03:23:55.095Z,9.00
2023-04-22T03:26:21.944Z,9.07
2023-04-22T03:28:48.355Z,9.13
2023-04-22T03:31:14.761Z,9.05
2023-04-22T03:33:41.168Z,9.11
2023-04-22T03:36:08.056Z,9.02
2023-04-22T03:38:34.500Z,8.97
2023-04-22T03:41:00.907Z,9.00
2023-04-22T03:43:27.403Z,9.04
2023-04-22T03:45:53.895Z,9.07
2023-04-22T03:48:20.306Z,9.14
2023-04-22T03:50:46.703Z,9.18
2023-04-22T03:53:13.230Z,9.16
2023-04-22T03:55:39.710Z,9.19
2023-04-22T03:58:06.250Z,9.23
2023-04-22T04:00:32.733Z,9.25
2023-04-22T04:02:59.678Z,9.22
2023-04-22T04:05:26.303Z,9.23
2023-04-22T04:07:52.783Z,9.24
2023-04-22T04:10:19.211Z,9.25
2023-04-22T04:12:45.745Z,9.25
2023-04-22T04:15:12.167Z,9.24
2023-04-22T04:17:38.690Z,9.14
2023-04-22T04:20:05.559Z,9.12
2023-04-22T04:22:31.993Z,9.07
2023-04-22T04:24:58.449Z,9.11
2023-04-22T04:27:24.899Z,9.07
2023-04-22T04:29:52.665Z,9.04
2023-04-22T04:32:19.104Z,9.15
2023-04-22T04:34:45.513Z,9.21
2023-04-22T04:37:12.727Z,9.05
2023-04-22T04:39:39.580Z,9.15
2023-04-22T04:42:06.336Z,9.24
2023-04-22T04:44:33.791Z,9.33
2023-04-22T04:47:00.344Z,9.47
2023-04-22T04:49:26.925Z,9.62
2023-04-22T04:51:53.363Z,9.67
2023-04-22T04:54:19.837Z,9.81
2023-04-22T04:56:46.496Z,9.87
2023-04-22T04:59:12.952Z,9.90
2023-04-22T05:01:39.552Z,9.94
2023-04-22T05:04:06.657Z,10.02
2023-04-22T05:06:33.787Z,10.04
2023-04-22T05:09:00.358Z,9.99
2023-04-22T05:11:26.842Z,10.03
2023-04-22T05:13:53.313Z,10.09
2023-04-22T05:16:19.992Z,10.14
2023-04-22T05:18:46.412Z,10.18
2023-04-22T05:21:12.827Z,10.17
2023-04-22T05:23:39.606Z,10.17
2023-04-22T05:26:06.074Z,10.20
2023-04-22T05:28:32.534Z,10.13
2023-04-22T05:30:58.994Z,10.10
2023-04-22T05:33:25.390Z,10.22
2023-04-22T05:35:52.456Z,10.38
2023-04-22T05:38:18.944Z,10.55
2023-04-22T05:40:45.453Z,10.87
2023-04-22T05:43:11.919Z,11.16
2023-04-22T05:45:38.423Z,11.26
2023-04-22T05:48:04.988Z,11.41
2023-04-22T05:50:31.560Z,11.63
2023-04-22T05:52:57.974Z,11.98
2023-04-22T05:55:24.441Z,12.08
2023-04-22T05:57:51.584Z,12.38
2023-04-22T06:00:18.628Z,12.77
2023-04-22T06:02:45.360Z,13.00
2023-04-22T06:05:12.028Z,13.15
2023-04-22T06:07:38.587Z,13.10
2023-04-22T06:10:05.722Z,13.05
2023-04-22T06:12:33.587Z,12.94
2023-04-22T06:14:59.984Z,12.87
2023-04-22T06:17:26.596Z,12.92
2023-04-22T06:19:53.101Z,13.13
2023-04-22T06:22:21.376Z,13.72
2023-04-22T06:24:48.396Z,14.53
2023-04-22T06:27:14.929Z,14.82
2023-04-22T06:29:41.576Z,15.35
2023-04-22T06:32:08.097Z,15.59
2023-04-22T06:34:34.685Z,15.92
2023-04-22T06:37:01.121Z,15.66
2023-04-22T06:39:27.623Z,15.77
2023-04-22T06:41:54.222Z,15.75
2023-04-22T06:44:20.753Z,16.10
2023-04-22T06:46:47.301Z,16.11
2023-04-22T06:49:13.781Z,16.51
2023-04-22T06:51:40.313Z,16.37
2023-04-22T06:54:06.892Z,16.75
2023-04-22T06:56:33.370Z,17.07
2023-04-22T06:58:59.871Z,17.50
2023-04-22T07:01:26.357Z,17.38
2023-04-22T07:03:52.862Z,17.33
2023-04-22T07:06:19.384Z,17.44
2023-04-22T07:08:45.783Z,17.49
2023-04-22T07:11:14.269Z,17.92
2023-04-22T07:13:41.299Z,17.71
2023-04-22T07:16:07.927Z,17.85
2023-04-22T07:18:36.012Z,18.29
2023-04-22T07:21:02.654Z,18.48
2023-04-22T07:23:29.195Z,18.41
2023-04-22T07:25:55.781Z,18.10
2023-04-22T07:28:22.253Z,17.99
2023-04-22T07:30:48.800Z,17.97
2023-04-22T07:33:15.243Z,17.96
2023-04-22T07:46:41.336Z,19.23
2023-04-22T07:49:08.010Z,19.30
2023-04-22T07:51:34.556Z,18.78
2023-04-22T07:54:01.099Z,18.53
2023-04-22T07:56:27.752Z,18.80
2023-04-22T07:58:54.337Z,18.76
2023-04-22T08:01:20.928Z,19.08
2023-04-22T08:03:47.904Z,19.68
2023-04-22T08:06:14.673Z,20.22
2023-04-22T08:08:41.228Z,20.73
2023-04-22T08:11:08.040Z,20.75
2023-04-22T08:13:34.771Z,20.77
2023-04-22T08:16:04.601Z,20.30
2023-04-22T08:18:31.195Z,20.38
2023-04-22T08:20:57.738Z,20.42
2023-04-22T08:23:25.069Z,20.81
2023-04-22T08:25:52.112Z,20.88
2023-04-22T08:28:18.696Z,20.82
2023-04-22T08:30:45.273Z,21.04
2023-04-22T08:33:12.188Z,21.26
2023-04-22T08:35:38.872Z,20.78
2023-04-22T08:38:05.449Z,20.74
2023-04-22T08:40:32.019Z,21.05
2023-04-22T08:42:58.710Z,20.91
2023-04-22T08:45:25.341Z,20.95
2023-04-22T08:47:53.715Z,20.98
2023-04-22T08:50:22.510Z,20.90
2023-04-22T08:52:49.249Z,21.05
2023-04-22T08:55:15.848Z,21.14
2023-04-22T08:57:43.042Z,21.21
2023-04-22T09:00:10.044Z,21.43
2023-04-22T09:02:37.577Z,21.49
2023-04-22T09:05:06.552Z,21.12
2023-04-22T09:07:33.316Z,21.00
2023-04-22T09:09:59.854Z,20.89
2023-04-22T09:12:26.571Z,20.73
2023-04-22T09:14:54.537Z,20.77
2023-04-22T09:17:35.117Z,20.84
2023-04-22T09:20:04.579Z,20.93
2023-04-22T09:22:45.253Z,21.28
2023-04-22T09:25:21.366Z,21.56
2023-04-22T09:27:52.504Z,21.05
2023-04-22T09:30:33.339Z,20.90
2023-04-22T09:33:04.717Z,21.03
2023-04-22T09:35:36.930Z,21.27
2023-04-22T09:38:10.484Z,21.10
2023-04-22T09:40:38.009Z,21.12
2023-04-22T09:45:37.812Z,21.32
2023-04-22T09:48:11.630Z,21.66
2023-04-22T09:50:40.868Z,21.81
2023-04-22T09:53:09.967Z,21.76
2023-04-22T09:55:48.456Z,21.92
2023-04-22T09:58:20.179Z,21.98
2023-04-22T10:00:52.109Z,21.68
2023-04-22T10:03:19.443Z,21.27
2023-04-22T10:05:46.374Z,21.64
2023-04-22T10:08:15.376Z,22.05
2023-04-22T10:10:42.784Z,21.85
2023-04-22T10:13:09.315Z,21.58
2023-04-22T10:15:42.555Z,21.45
2023-04-22T10:18:12.841Z,21.59
2023-04-22T10:20:42.403Z,21.40
2023-04-22T10:23:18.962Z,21.73
2023-04-22T10:25:51.477Z,21.90
2023-04-22T10:28:20.571Z,22.16
2023-04-22T10:30:47.304Z,22.13
2023-04-22T10:33:29.060Z,22.37
2023-04-22T10:36:15.855Z,22.63
2023-04-22T10:38:54.215Z,22.82
2023-04-22T10:41:35.097Z,22.73
2023-04-22T10:44:07.054Z,22.92
2023-04-22T10:46:40.351Z,23.11
2023-04-22T10:49:07.861Z,23.04
2023-04-22T10:51:41.226Z,23.25
2023-04-22T10:54:31.425Z,23.18
2023-04-22T10:57:03.667Z,22.95
2023-04-22T10:59:31.916Z,22.85
2023-04-22T11:02:02.597Z,22.72
2023-04-22T11:04:29.399Z,22.73
2023-04-22T11:07:16.246Z,22.82
2023-04-22T11:09:46.820Z,22.92
2023-04-22T11:12:35.831Z,22.94
2023-04-22T11:15:23.039Z,22.92
2023-04-22T11:17:54.315Z,22.62
2023-04-22T11:20:21.285Z,22.54
2023-04-22T11:22:50.907Z,22.33
2023-04-22T11:25:17.929Z,21.98
2023-04-22T11:27:44.647Z,21.75
2023-04-22T11:30:21.966Z,21.56
2023-04-22T11:32:53.615Z,21.35
2023-04-22T11:35:29.693Z,21.18
2023-04-22T11:37:58.950Z,20.99
2023-04-22T11:40:38.830Z,20.64
2023-04-22T11:43:08.613Z,20.42
2023-04-22T11:45:37.218Z,20.15
2023-04-22T11:48:07.230Z,19.76
2023-04-22T11:50:55.118Z,19.58
2023-04-22T11:53:24.187Z,19.41
2023-04-22T11:55:52.010Z,19.34
2023-04-22T11:58:28.881Z,19.26
2023-04-22T12:00:57.742Z,19.14
2023-04-22T12:03:31.547Z,18.96
2023-04-22T12:05:59.596Z,19.05
2023-04-22T12:08:49.457Z,19.08
2023-04-22T12:11:16.007Z,19.08
2023-04-22T12:13:45.632Z,19.17
2023-04-22T12:16:14.200Z,19.25
2023-04-22T12:18:52.078Z,19.28
2023-04-22T12:21:24.798Z,19.34
2023-04-22T12:23:59.794Z,19.46
2023-04-22T12:26:27.945Z,19.68
2023-04-22T12:28:56.725Z,19.91
2023-04-22T12:31:23.874Z,20.00
2023-04-22T12:33:50.805Z,20.18
2023-04-22T12:36:20.829Z,20.14
2023-04-22T12:38:47.881Z,20.12
2023-04-22T12:41:15.851Z,20.17
2023-04-22T12:43:42.462Z,20.19
2023-04-22T12:46:09.578Z,20.29
2023-04-22T12:48:39.505Z,20.24
2023-04-22T12:51:06.943Z,20.14
2023-04-22T12:53:34.067Z,19.94
2023-04-22T12:56:00.870Z,19.79
2023-04-22T12:58:27.677Z,19.78
2023-04-22T13:00:54.357Z,19.76
2023-04-22T13:03:21.039Z,19.77
2023-04-22T13:05:47.874Z,19.72
2023-04-22T13:08:14.745Z,19.83
2023-04-22T13:10:41.314Z,19.82
2023-04-22T13:15:38.973Z,20.00
2023-04-22T13:18:06.182Z,20.11
2023-04-22T13:20:32.953Z,20.23
2023-04-22T13:22:59.473Z,20.18
2023-04-22T13:25:26.058Z,20.19
2023-04-22T13:27:52.659Z,20.22
2023-04-22T13:30:20.092Z,20.31
2023-04-22T13:32:46.775Z,20.44
2023-04-22T13:35:13.460Z,20.43
2023-04-22T13:37:40.048Z,20.50
2023-04-22T13:40:08.356Z,20.56
2023-04-22T13:42:35.039Z,20.62
2023-04-22T13:45:01.595Z,20.58
2023-04-22T13:47:28.219Z,20.61
2023-04-22T13:49:54.745Z,20.49
2023-04-22T13:52:21.844Z,20.44
2023-04-22T13:54:48.414Z,20.38
2023-04-22T13:57:15.090Z,20.25
2023-04-22T13:59:42.264Z,20.24
2023-04-22T14:02:09.426Z,20.19
2023-04-22T14:04:36.238Z,20.05
2023-04-22T14:07:04.090Z,19.95
2023-04-22T14:09:31.136Z,19.88
2023-04-22T14:11:58.463Z,19.73
2023-04-22T14:14:24.936Z,19.65
2023-04-22T14:16:51.994Z,19.73
2023-04-22T14:19:18.749Z,19.72
2023-04-22T14:21:45.721Z,19.86
2023-04-22T14:24:12.307Z,19.99
2023-04-22T14:26:38.902Z,19.97
2023-04-22T14:29:05.607Z,19.90
2023-04-22T14:31:32.349Z,19.94
2023-04-22T14:33:58.952Z,19.97
2023-04-22T14:36:25.771Z,20.01
2023-04-22T14:38:52.357Z,19.97
2023-04-22T14:41:19.018Z,19.95
2023-04-22T14:43:46.954Z,20.00
2023-04-22T14:46:13.515Z,20.06
2023-04-22T14:48:40.266Z,19.98
2023-04-22T14:51:06.954Z,19.93
2023-04-22T14:53:34.153Z,19.78
2023-04-22T14:56:01.181Z,19.45
2023-04-22T14:58:31.300Z,19.16
2023-04-22T15:00:59.968Z,19.07
2023-04-22T15:03:26.854Z,18.89
2023-04-22T15:05:54.557Z,18.95
2023-04-22T15:08:21.640Z,18.78
2023-04-22T15:10:48.242Z,18.82
2023-04-22T15:13:15.143Z,18.89
2023-04-22T15:15:41.843Z,18.79
2023-04-22T15:18:09.044Z,18.76
2023-04-22T15:20:35.907Z,18.83
2023-04-22T15:23:03.011Z,18.70
2023-04-22T15:25:29.755Z,18.74
2023-04-22T15:27:57.056Z,18.90
2023-04-22T15:30:24.292Z,18.93
2023-04-22T15:32:50.906Z,18.83
2023-04-22T15:35:17.927Z,18.79
2023-04-22T15:37:45.780Z,18.96
2023-04-22T15:40:12.411Z,19.07
2023-04-22T15:42:39.040Z,19.22
2023-04-22T15:45:06.625Z,19.12
2023-04-22T15:47:33.965Z,19.04
2023-04-22T15:50:06.622Z,19.19
2023-04-22T15:52:33.738Z,19.17
2023-04-22T15:55:01.877Z,19.21
2023-04-22T15:57:28.745Z,19.20
2023-04-22T16:00:06.671Z,19.04
2023-04-22T16:02:36.903Z,18.86
2023-04-22T16:05:04.214Z,18.97
2023-04-22T16:07:31.846Z,18.96
2023-04-22T16:09:58.467Z,18.92
2023-04-22T16:12:24.967Z,19.03
2023-04-22T16:14:51.517Z,19.07
2023-04-22T16:17:18.268Z,19.01
2023-04-22T16:19:44.945Z,18.86
2023-04-22T16:22:11.878Z,18.72
2023-04-22T16:24:38.418Z,18.70
2023-04-22T16:27:05.022Z,18.79
2023-04-22T16:29:31.565Z,18.75
2023-04-22T16:31:58.172Z,18.67
2023-04-22T16:34:24.695Z,18.70
2023-04-22T16:36:51.353Z,18.68
2023-04-22T16:39:19.134Z,18.65
2023-04-22T16:41:45.972Z,18.67
2023-04-22T16:44:12.627Z,18.58
2023-04-22T16:46:39.307Z,18.56
2023-04-22T16:49:08.441Z,18.39
2023-04-22T16:51:36.982Z,18.48
2023-04-22T16:54:04.026Z,18.41
2023-04-22T16:56:30.724Z,18.31
2023-04-22T16:58:57.359Z,18.13
2023-04-22T17:01:24.186Z,18.02
2023-04-22T17:03:51.044Z,17.78
2023-04-22T17:06:18.027Z,17.65
2023-04-22T17:08:44.563Z,17.37
2023-04-22T17:11:12.008Z,17.16
2023-04-22T17:13:38.617Z,16.93
2023-04-22T17:16:05.678Z,16.90
2023-04-22T17:18:32.370Z,16.63
2023-04-22T17:20:58.933Z,16.46
2023-04-22T17:23:26.992Z,16.53
2023-04-22T17:25:53.600Z,16.51
2023-04-22T17:28:20.246Z,16.13
2023-04-22T17:30:46.798Z,16.04
2023-04-22T17:33:13.401Z,15.96
2023-04-22T17:35:40.298Z,15.95
2023-04-22T17:38:07.153Z,15.92
2023-04-22T17:40:33.762Z,15.82
2023-04-22T17:43:00.384Z,15.76
2023-04-22T17:45:27.062Z,15.57
2023-04-22T17:47:53.661Z,15.43
2023-04-22T17:50:20.909Z,15.43
2023-04-22T17:52:47.500Z,15.33
2023-04-22T17:55:14.072Z,15.27
2023-04-22T17:57:41.020Z,15.19
2023-04-22T18:00:08.439Z,15.25
2023-04-22T18:02:35.042Z,15.20
2023-04-22T18:05:02.062Z,15.06
2023-04-22T18:07:28.616Z,15.09
2023-04-22T18:09:55.332Z,15.07
2023-04-22T18:12:24.224Z,15.08
2023-04-22T18:14:50.805Z,15.10
2023-04-22T18:17:20.163Z,14.95
2023-04-22T18:19:50.897Z,14.84
2023-04-22T18:22:18.669Z,14.83
2023-04-22T18:24:45.542Z,14.75
2023-04-22T18:27:12.155Z,14.97
2023-04-22T18:29:39.103Z,14.88
2023-04-22T18:32:06.081Z,14.93
2023-04-22T18:34:32.745Z,14.85
2023-04-22T18:36:59.315Z,14.72
2023-04-22T18:39:25.974Z,14.72
2023-04-22T18:41:52.639Z,14.74
2023-04-22T18:44:19.583Z,14.81
2023-04-22T18:46:46.437Z,14.83
2023-04-22T18:49:13.005Z,14.73
2023-04-22T18:51:42.071Z,14.72
2023-04-22T18:54:08.991Z,14.74
2023-04-22T18:56:35.662Z,14.65
2023-04-22T18:59:02.301Z,14.48
2023-04-22T19:01:28.974Z,14.49
2023-04-22T19:03:56.041Z,14.57
2023-04-22T19:06:22.674Z,14.54
2023-04-22T19:08:51.830Z,14.58
2023-04-22T19:11:18.717Z,14.58
2023-04-22T19:13:46.354Z,14.52
2023-04-22T19:16:12.962Z,14.47
2023-04-22T19:18:40.096Z,14.43
2023-04-22T19:21:07.145Z,14.32
2023-04-22T19:23:34.457Z,14.34
2023-04-22T19:26:02.011Z,14.25
2023-04-22T19:28:28.982Z,14.08
2023-04-22T19:30:55.607Z,14.08
2023-04-22T19:33:22.280Z,14.02
2023-04-22T19:35:48.971Z,13.99
2023-04-22T19:38:19.069Z,13.95
2023-04-22T19:40:45.802Z,13.93
2023-04-22T19:43:12.380Z,13.90
2023-04-22T19:45:38.928Z,13.88
2023-04-22T19:48:06.150Z,13.86
2023-04-22T19:50:34.460Z,13.84
2023-04-22T19:53:05.377Z,13.76
2023-04-22T19:55:36.773Z,13.69
2023-04-22T19:58:03.820Z,13.65
2023-04-22T20:00:34.936Z,13.52
2023-04-22T20:03:02.249Z,13.45
2023-04-22T20:05:29.026Z,13.35
2023-04-22T20:08:00.210Z,13.33
2023-04-22T20:10:27.883Z,13.30
2023-04-22T20:12:54.726Z,13.26
2023-04-22T20:15:21.635Z,13.20
2023-04-22T20:17:48.818Z,13.20
2023-04-22T20:20:17.548Z,13.10
2023-04-22T20:22:46.845Z,13.04
2023-04-22T20:25:15.728Z,12.87
2023-04-22T20:27:42.936Z,12.65
2023-04-22T20:30:10.951Z,12.56
2023-04-22T20:32:38.400Z,12.48
2023-04-22T20:35:06.766Z,12.48
2023-04-22T20:37:36.095Z,12.57
2023-04-22T20:40:05.495Z,12.56
2023-04-22T20:42:33.016Z,12.53
2023-04-22T20:44:59.629Z,12.53
2023-04-22T20:47:26.204Z,12.33
2023-04-22T20:49:52.801Z,12.16
2023-04-22T20:52:19.366Z,12.16
2023-04-22T20:54:46.116Z,11.92
2023-04-22T20:57:13.239Z,11.96
2023-04-22T20:59:39.779Z,11.98
2023-04-22T21:02:07.827Z,12.04
2023-04-22T21:04:34.774Z,12.07
2023-04-22T21:07:06.863Z,12.09
2023-04-22T21:09:33.734Z,12.03
2023-04-22T21:12:01.019Z,11.95
2023-04-22T21:14:27.891Z,11.90
2023-04-22T21:17:04.253Z,11.67
2023-04-22T21:19:34.490Z,11.82
2023-04-22T21:22:05.839Z,11.76
2023-04-22T21:24:34.849Z,11.72
2023-04-22T21:27:01.949Z,11.60
2023-04-22T21:29:29.042Z,11.62
2023-04-22T21:32:07.975Z,11.56
2023-04-22T21:34:35.652Z,11.63
2023-04-22T21:37:02.519Z,11.57
2023-04-22T21:39:29.940Z,11.69
2023-04-22T21:41:56.395Z,11.62
2023-04-22T21:44:23.032Z,11.60
2023-04-22T21:46:49.612Z,11.55
2023-04-22T21:49:16.345Z,11.47
2023-04-22T21:51:43.120Z,11.31
2023-04-22T21:54:09.733Z,11.13
2023-04-22T21:56:36.443Z,11.00
2023-04-22T21:59:02.958Z,10.87
2023-04-22T22:01:29.632Z,10.79
2023-04-22T22:03:56.422Z,10.86
2023-04-22T22:06:23.153Z,10.85
2023-04-22T22:08:50.412Z,10.87
2023-04-22T22:11:27.472Z,10.85
2023-04-22T22:13:56.799Z,10.85
2023-04-22T22:16:23.416Z,10.70
2023-04-22T22:18:50.642Z,10.55
2023-04-22T22:21:17.877Z,10.41
2023-04-22T22:23:44.401Z,10.30
2023-04-22T22:26:11.289Z,10.24
2023-04-22T22:28:38.343Z,10.19
2023-04-22T22:31:05.057Z,10.08
2023-04-22T22:33:31.642Z,10.08
2023-04-22T22:35:58.300Z,10.00
2023-04-22T22:38:24.832Z,10.03
2023-04-22T22:40:51.462Z,10.01
2023-04-22T22:43:18.109Z,9.83
2023-04-22T22:45:45.623Z,9.81
2023-04-22T22:48:12.367Z,9.75
2023-04-22T22:50:39.898Z,9.63
2023-04-22T22:53:06.499Z,9.46
2023-04-22T22:55:34.168Z,9.62
2023-04-22T22:58:00.963Z,9.68
2023-04-22T23:00:27.739Z,9.59
2023-04-22T23:02:54.779Z,9.71
2023-04-22T23:05:21.919Z,9.77
2023-04-22T23:07:48.489Z,9.73
2023-04-22T23:10:15.771Z,9.80
2023-04-22T23:12:42.504Z,9.76
2023-04-22T23:15:09.793Z,9.74
2023-04-22T23:17:36.946Z,9.64
2023-04-22T23:20:04.476Z,9.78
2023-04-22T23:22:32.198Z,9.79
2023-04-22T23:24:58.818Z,9.76
2023-04-22T23:27:25.453Z,9.70
2023-04-22T23:29:52.046Z,9.65
2023-04-22T23:32:19.460Z,9.61
2023-04-22T23:34:48.924Z,9.66
2023-04-22T23:37:15.556Z,9.65
2023-04-22T23:39:42.594Z,9.65
2023-04-22T23:42:09.171Z,9.57
2023-04-22T23:44:35.875Z,9.46
2023-04-22T23:47:02.532Z,9.35
2023-04-22T23:49:29.720Z,9.21
2023-04-22T23:51:56.159Z,9.13
2023-04-22T23:54:22.739Z,9.06
2023-04-22T23:56:49.249Z,9.01
2023-04-22T23:59:15.849Z,9.01
